createdAt,value
2018-05-15T00:02:16.054Z,58.30
2018-05-15T00:07:18.506Z,58.00
2018-05-15T00:12:21.065Z,57.50
2018-05-15T00:17:23.502Z,57.30
2018-05-15T00:22:26.095Z,57.60
2018-05-15T00:27:28.659Z,57.70
2018-05-15T00:32:31.094Z,58.00
2018-05-15T00:37:34.634Z,59.10
2018-05-15T00:42:37.077Z,59.10
2018-05-15T00:47:39.535Z,59.20
2018-05-15T00:52:42.094Z,59.50
2018-05-15T00:57:44.581Z,60.60
2018-05-15T01:02:48.599Z,61.30
2018-05-15T01:07:53.005Z,60.90
2018-05-15T01:12:55.476Z,60.80
2018-05-15T01:17:58.934Z,60.20
2018-05-15T01:23:01.374Z,59.80
2018-05-15T01:33:32.863Z,58.90
2018-05-15T01:38:36.073Z,60.50
2018-05-15T01:43:39.903Z,60.30
2018-05-15T01:48:43.120Z,62.00
2018-05-15T01:53:46.441Z,64.10
2018-05-15T01:58:49.643Z,63.30
2018-05-15T02:03:52.895Z,62.50
2018-05-15T02:08:55.339Z,62.40
2018-05-15T02:13:58.556Z,61.80
2018-05-15T02:19:01.849Z,61.20
2018-05-15T02:24:04.310Z,61.00
2018-05-15T02:29:06.871Z,60.30
2018-05-15T02:34:29.282Z,59.70
2018-05-15T02:39:32.190Z,59.30
2018-05-15T02:44:34.670Z,59.10
2018-05-15T02:49:37.184Z,58.70
2018-05-15T02:54:39.643Z,58.60
2018-05-15T02:59:49.203Z,58.70
2018-05-15T03:04:51.660Z,58.70
2018-05-15T03:09:54.875Z,60.10
2018-05-15T03:14:57.320Z,60.00
2018-05-15T03:19:59.777Z,59.90
2018-05-15T03:25:02.244Z,60.40
2018-05-15T03:30:06.396Z,62.00
2018-05-15T03:35:08.842Z,61.90
2018-05-15T03:40:11.299Z,62.10
2018-05-15T03:45:13.770Z,61.50
2018-05-15T03:50:17.218Z,60.90
2018-05-15T03:55:19.766Z,60.30
2018-05-15T04:06:13.037Z,60.00
2018-05-15T04:16:38.675Z,60.50
2018-05-15T04:21:41.118Z,61.10
2018-05-15T04:26:43.567Z,61.60
2018-05-15T04:31:45.997Z,61.70
2018-05-15T04:36:48.515Z,61.60
2018-05-15T04:41:51.720Z,62.00
2018-05-15T04:46:54.944Z,62.90
2018-05-15T04:51:57.391Z,62.90
2018-05-15T04:56:59.843Z,61.60
2018-05-15T05:02:02.358Z,59.90
2018-05-15T05:07:06.261Z,60.00
2018-05-15T05:12:08.709Z,60.00
2018-05-15T05:17:11.197Z,59.90
2018-05-15T05:22:13.713Z,60.00
2018-05-15T05:27:16.957Z,58.50
2018-05-15T05:32:20.153Z,57.70
2018-05-15T05:37:22.598Z,57.70
2018-05-15T05:42:25.817Z,56.20
2018-05-15T05:47:28.382Z,56.10
2018-05-15T05:52:30.847Z,54.90
2018-05-15T05:57:33.301Z,53.70
2018-05-15T06:02:35.833Z,53.20
2018-05-15T06:07:38.295Z,52.90
2018-05-15T06:12:41.518Z,51.30
2018-05-15T06:17:44.742Z,51.90
2018-05-15T06:28:02.684Z,51.00
2018-05-15T06:33:05.136Z,49.70
2018-05-15T06:38:07.624Z,48.00
2018-05-15T06:43:10.093Z,47.30
2018-05-15T06:48:13.315Z,47.20
2018-05-15T06:53:15.789Z,47.20
2018-05-15T06:58:18.226Z,44.50
2018-05-15T07:03:20.691Z,44.70
2018-05-15T07:08:23.917Z,41.90
2018-05-15T07:13:26.376Z,41.80
2018-05-15T07:18:28.832Z,41.60
2018-05-15T07:23:31.263Z,40.80
2018-05-15T07:28:34.478Z,41.00
2018-05-15T07:33:37.711Z,40.80
2018-05-15T07:38:40.161Z,40.60
2018-05-15T07:44:06.169Z,40.40
2018-05-15T07:49:08.624Z,40.80
2018-05-15T07:54:11.854Z,40.00
2018-05-15T07:59:14.305Z,39.90
2018-05-15T08:04:17.611Z,39.70
2018-05-15T08:09:20.754Z,39.00
2018-05-15T08:14:23.209Z,38.90
2018-05-15T08:19:25.668Z,37.70
2018-05-15T08:24:28.121Z,38.80
2018-05-15T08:29:31.341Z,38.90
2018-05-15T08:34:33.802Z,38.70
2018-05-15T08:39:36.261Z,39.40
2018-05-15T08:44:38.718Z,38.00
2018-05-15T08:49:41.929Z,36.80
2018-05-15T08:54:44.435Z,36.80
2018-05-15T08:59:46.876Z,36.70
2018-05-15T09:04:49.326Z,35.70
2018-05-15T09:09:51.772Z,36.50
2018-05-15T09:14:54.229Z,36.20
2018-05-15T09:19:56.673Z,36.20
2018-05-15T09:25:04.788Z,35.60
2018-05-15T09:30:07.234Z,34.30
2018-05-15T09:35:09.677Z,35.50
2018-05-15T09:40:12.891Z,33.30
2018-05-15T09:45:16.117Z,33.80
2018-05-15T09:50:18.554Z,33.80
2018-05-15T09:55:21.019Z,34.30
2018-05-15T10:00:29.185Z,33.50
2018-05-15T10:05:31.626Z,33.30
2018-05-15T10:10:34.068Z,35.10
2018-05-15T10:15:36.515Z,34.20
2018-05-15T10:20:38.977Z,34.70
2018-05-15T10:25:42.210Z,34.70
2018-05-15T10:30:45.496Z,34.70
2018-05-15T10:35:47.963Z,35.40
2018-05-15T10:40:50.418Z,35.70
2018-05-15T10:45:52.875Z,35.80
2018-05-15T10:50:56.106Z,36.30
2018-05-15T10:55:58.554Z,36.20
2018-05-15T11:01:01.769Z,35.60
2018-05-15T11:06:04.243Z,35.50
2018-05-15T11:11:06.725Z,36.30
2018-05-15T11:16:09.176Z,36.10
2018-05-15T11:21:24.235Z,35.20
2018-05-15T11:26:26.685Z,35.20
2018-05-15T11:31:29.156Z,35.20
2018-05-15T11:36:32.374Z,34.70
2018-05-15T11:41:34.940Z,34.50
2018-05-15T11:46:38.064Z,33.60
2018-05-15T11:51:41.196Z,33.60
2018-05-15T11:56:43.036Z,34.80
2018-05-15T12:01:46.258Z,33.30
2018-05-15T12:06:49.506Z,34.10
2018-05-15T12:11:51.977Z,34.00
2018-05-15T12:16:54.431Z,34.30
2018-05-15T12:21:56.892Z,33.60
2018-05-15T12:26:59.336Z,33.60
2018-05-15T12:32:02.549Z,33.30
2018-05-15T12:37:05.214Z,33.10
2018-05-15T12:42:08.662Z,34.10
2018-05-15T12:47:10.960Z,34.10
2018-05-15T12:52:13.737Z,32.70
2018-05-15T12:57:17.025Z,34.20
2018-05-15T13:02:19.486Z,34.00
2018-05-15T13:07:21.962Z,35.90
2018-05-15T13:12:24.491Z,36.10
2018-05-15T13:17:26.982Z,36.60
2018-05-15T13:22:48.523Z,37.40
2018-05-15T13:28:14.046Z,37.00
2018-05-15T13:33:16.524Z,36.60
2018-05-15T13:38:18.985Z,38.10
2018-05-15T13:43:22.300Z,38.70
2018-05-15T13:48:24.706Z,38.60
2018-05-15T13:53:38.371Z,38.10
2018-05-15T13:58:40.853Z,38.50
2018-05-15T14:03:43.313Z,35.50
2018-05-15T14:08:45.765Z,36.30
2018-05-15T14:13:48.225Z,35.50
2018-05-15T14:18:50.691Z,35.40
2018-05-15T14:23:53.137Z,34.40
2018-05-15T14:28:55.707Z,36.20
2018-05-15T14:33:58.917Z,35.90
2018-05-15T14:39:02.666Z,35.80
2018-05-15T14:44:05.236Z,37.40
2018-05-15T14:49:08.715Z,36.70
2018-05-15T14:54:11.213Z,36.40
2018-05-15T14:59:13.702Z,37.50
2018-05-15T15:04:17.071Z,38.10
2018-05-15T15:09:19.802Z,37.60
2018-05-15T15:14:22.427Z,38.30
2018-05-15T15:19:25.634Z,35.30
2018-05-15T15:24:28.885Z,35.60
2018-05-15T15:29:31.325Z,35.50
2018-05-15T15:34:33.793Z,36.40
2018-05-15T15:39:36.483Z,35.50
2018-05-15T15:44:39.057Z,36.00
2018-05-15T15:49:42.603Z,37.00
2018-05-15T15:54:45.125Z,37.10
2018-05-15T15:59:48.460Z,37.70
2018-05-15T16:04:51.690Z,36.40
2018-05-15T16:09:54.190Z,36.20
2018-05-15T16:14:56.684Z,35.70
2018-05-15T16:20:12.872Z,34.30
2018-05-15T16:25:16.094Z,35.80
2018-05-15T16:30:18.598Z,35.80
2018-05-15T16:35:21.806Z,35.50
2018-05-15T16:40:24.290Z,35.10
2018-05-15T16:45:26.885Z,35.50
2018-05-15T16:50:29.366Z,34.90
2018-05-15T16:55:32.781Z,35.30
2018-05-15T17:00:36.083Z,35.60
2018-05-15T17:05:39.313Z,36.00
2018-05-15T17:10:41.854Z,36.00
2018-05-15T17:15:44.299Z,35.70
2018-05-15T17:20:46.879Z,34.70
2018-05-15T17:25:50.175Z,34.80
2018-05-15T17:30:53.530Z,34.70
2018-05-15T17:36:16.631Z,35.50
2018-05-15T17:41:19.088Z,35.50
2018-05-15T17:51:49.571Z,36.00
2018-05-15T17:56:52.033Z,36.40
2018-05-15T18:01:54.531Z,36.80
2018-05-15T18:06:57.811Z,37.00
2018-05-15T18:12:01.193Z,36.90
2018-05-15T18:17:04.469Z,37.00
2018-05-15T18:22:16.274Z,37.60
2018-05-15T18:27:18.813Z,37.40
2018-05-15T18:32:21.435Z,37.20
2018-05-15T18:37:23.926Z,37.50
2018-05-15T18:42:26.401Z,37.70
2018-05-15T18:47:28.916Z,38.10
2018-05-15T18:52:31.371Z,38.00
2018-05-15T18:57:37.099Z,38.50
2018-05-15T19:02:39.626Z,39.20
2018-05-15T19:07:41.993Z,39.30
2018-05-15T19:12:46.014Z,39.50
2018-05-15T19:17:55.852Z,39.80
2018-05-15T19:23:19.775Z,40.00
2018-05-15T19:28:27.650Z,39.90
2018-05-15T19:33:35.950Z,40.50
2018-05-15T19:38:39.162Z,41.30
2018-05-15T19:43:42.375Z,44.10
2018-05-15T19:48:44.824Z,44.00
2018-05-15T19:53:47.368Z,45.40
2018-05-15T19:58:49.820Z,45.80
2018-05-15T20:03:52.255Z,46.80
2018-05-15T20:08:54.764Z,47.70
2018-05-15T20:13:57.152Z,48.40
2018-05-15T20:19:13.785Z,48.40
2018-05-15T20:24:16.217Z,49.00
2018-05-15T20:29:18.662Z,49.00
2018-05-15T20:34:21.112Z,49.40
2018-05-15T20:39:26.324Z,50.10
2018-05-15T20:44:28.766Z,50.00
2018-05-15T20:49:41.027Z,49.80
2018-05-15T20:54:43.638Z,50.10
2018-05-15T20:59:46.110Z,51.00
2018-05-15T21:04:48.596Z,51.40
2018-05-15T21:09:51.060Z,51.80
2018-05-15T21:14:53.500Z,52.10
2018-05-15T21:19:56.090Z,52.50
2018-05-15T21:24:58.621Z,52.10
2018-05-15T21:30:05.521Z,52.50
2018-05-15T21:35:08.769Z,54.30
2018-05-15T21:45:20.121Z,55.10
2018-05-15T21:50:22.570Z,55.40
2018-05-15T21:55:25.799Z,58.20
2018-05-15T22:00:29.024Z,58.80
2018-05-15T22:05:31.477Z,58.80
2018-05-15T22:10:34.178Z,59.70
2018-05-15T22:15:48.516Z,60.80
2018-05-15T22:21:02.990Z,61.50
2018-05-15T22:26:05.453Z,62.70
2018-05-15T22:31:21.839Z,63.90
2018-05-15T22:36:24.361Z,65.00
2018-05-15T22:41:26.822Z,67.80
2018-05-15T22:46:29.265Z,69.20
2018-05-15T22:51:31.721Z,70.60
2018-05-15T22:56:35.032Z,71.60
2018-05-15T23:01:38.290Z,71.80
2018-05-15T23:06:41.445Z,72.20
2018-05-15T23:11:44.651Z,73.10
2018-05-15T23:16:47.090Z,72.20
2018-05-15T23:21:49.564Z,73.00
2018-05-15T23:26:52.011Z,73.20
2018-05-15T23:31:54.449Z,73.50
2018-05-15T23:36:57.029Z,74.10
2018-05-15T23:42:00.229Z,73.90
2018-05-15T23:47:03.442Z,73.70
2018-05-15T23:52:06.798Z,74.20
2018-05-15T23:57:09.271Z,73.90
